Moundsville, West Virginia
Current Conditions -  °F | °C
As of 6:11 AM on Thursday 23 Oct 2014 (Local Time) from KHLG Reporting Station
Broken Clouds Broken Clouds  
Wind Chill: 41°   Ceiling: 700
Heat Index: 44°   Visibility: 10mi
Dew Point: 42°   Wind: 6mph
Humidity: 93%   Direction: 300°WNW
Pressure: 30.15"   Gusts: NA
Location:  39.92°N, 80.75°W
Report Text: KHLG 231011Z AUTO 30005KT 10SM BKN007 BKN011 07/06 A3015 RMK AO2 CIG 006V009 T00670056
Loading
Personal Weather Stations






























Interactive Weather Map
Tropical Storm Tracking
New forecast layout! Learn more

10-Day Weather Forecast

Advertisements
Track Severe Weather on mobile